AMX856 MMMX-MMVR
Flight info
| Callsign | AMX856 |
|---|---|
| Flight time | N/A |
| Altitude | 27000 |
| Route | NOXOS3A NOXOS UT155 AVALI UT61 DURIB DURIB1B |
| Aircraft | B752/M-SDE2E3FGHIJ3J4J7RWXY/LB1 |
Departure
| Time | N/A |
|---|---|
| Airport | Mexico City Benito Juárez International Airport (MMMX) |
Arrival
| Time | 2026-04-28 18:24 |
|---|---|
| Airport | General Heriberto Jara International Airport (MMVR) |
| Time | Latitude | Longitude | Altitude | Speed | Heading |
|---|---|---|---|---|---|
| 2026-04-28 17:49 | 19.63453 | -98.69473 | 18323 ft | 323 kts | 60° |
| 2026-04-28 17:50 | 19.64585 | -98.67400 | 18797 ft | 325 kts | 60° |
| 2026-04-28 17:50 | 19.65722 | -98.65320 | 19214 ft | 330 kts | 60° |
| 2026-04-28 17:50 | 19.66867 | -98.63223 | 19725 ft | 330 kts | 60° |
| 2026-04-28 17:50 | 19.68040 | -98.61076 | 20119 ft | 335 kts | 60° |
| 2026-04-28 17:51 | 19.69199 | -98.58952 | 20576 ft | 338 kts | 60° |
| 2026-04-28 17:51 | 19.70390 | -98.56769 | 20982 ft | 342 kts | 60° |
| 2026-04-28 17:51 | 19.71569 | -98.54609 | 21470 ft | 343 kts | 60° |
| 2026-04-28 17:51 | 19.72782 | -98.52387 | 21847 ft | 348 kts | 60° |
| 2026-04-28 17:52 | 19.73767 | -98.50063 | 22302 ft | 350 kts | 75° |
| 2026-04-28 17:52 | 19.74191 | -98.47519 | 22737 ft | 352 kts | 87° |
| 2026-04-28 17:52 | 19.73187 | -98.42355 | 23048 ft | 377 kts | 111° |
| 2026-04-28 17:53 | 19.72208 | -98.39700 | 23066 ft | 393 kts | 109° |
| 2026-04-28 17:53 | 19.71282 | -98.36923 | 23082 ft | 408 kts | 108° |
| 2026-04-28 17:53 | 19.70356 | -98.34031 | 23095 ft | 422 kts | 108° |
| 2026-04-28 17:53 | 19.69422 | -98.31036 | 23164 ft | 433 kts | 107° |
| 2026-04-28 17:54 | 19.68489 | -98.28006 | 23537 ft | 435 kts | 107° |
| 2026-04-28 17:54 | 19.67558 | -98.24963 | 23894 ft | 438 kts | 107° |
| 2026-04-28 17:54 | 19.66622 | -98.21884 | 24207 ft | 441 kts | 107° |
| 2026-04-28 17:54 | 19.65676 | -98.18773 | 24604 ft | 443 kts | 106° |
| 2026-04-28 17:55 | 19.64733 | -98.15667 | 24956 ft | 445 kts | 106° |
| 2026-04-28 17:55 | 19.63786 | -98.12543 | 25297 ft | 448 kts | 106° |
| 2026-04-28 17:55 | 19.62818 | -98.09356 | 25655 ft | 450 kts | 106° |
| 2026-04-28 17:55 | 19.62033 | -98.06200 | 26144 ft | 446 kts | 98° |
| 2026-04-28 17:56 | 19.61752 | -98.02956 | 26639 ft | 442 kts | 88° |
| 2026-04-28 17:56 | 19.62005 | -97.99716 | 27113 ft | 438 kts | 78° |
| 2026-04-28 17:56 | 19.62773 | -97.96629 | 27526 ft | 435 kts | 68° |
| 2026-04-28 17:56 | 19.63931 | -97.93671 | 27577 ft | 433 kts | 64° |
| 2026-04-28 17:57 | 19.65169 | -97.90802 | 27566 ft | 430 kts | 63° |
| 2026-04-28 17:57 | 19.66455 | -97.87906 | 27563 ft | 429 kts | 63° |
| 2026-04-28 17:57 | 19.67740 | -97.85077 | 27552 ft | 430 kts | 62° |
| 2026-04-28 17:57 | 19.69050 | -97.82233 | 27538 ft | 431 kts | 62° |
| 2026-04-28 17:58 | 19.70374 | -97.79384 | 27510 ft | 431 kts | 62° |
| 2026-04-28 17:58 | 19.71707 | -97.76526 | 27500 ft | 429 kts | 62° |
| 2026-04-28 17:58 | 19.73031 | -97.73695 | 27485 ft | 429 kts | 62° |
| 2026-04-28 17:58 | 19.74358 | -97.70863 | 27484 ft | 429 kts | 62° |
| 2026-04-28 17:59 | 19.75681 | -97.68041 | 27474 ft | 432 kts | 62° |
| 2026-04-28 17:59 | 19.77027 | -97.65171 | 27479 ft | 432 kts | 62° |
| 2026-04-28 17:59 | 19.78362 | -97.62322 | 27463 ft | 431 kts | 62° |
| 2026-04-28 17:59 | 19.79688 | -97.59493 | 27449 ft | 430 kts | 62° |
| 2026-04-28 18:00 | 19.81011 | -97.56671 | 27437 ft | 430 kts | 62° |
| 2026-04-28 18:00 | 19.82358 | -97.53795 | 27437 ft | 430 kts | 62° |
| 2026-04-28 18:00 | 19.83672 | -97.50987 | 27405 ft | 431 kts | 62° |
| 2026-04-28 18:00 | 19.85017 | -97.48114 | 27389 ft | 431 kts | 62° |
| 2026-04-28 18:01 | 19.86342 | -97.45280 | 27362 ft | 432 kts | 62° |
| 2026-04-28 18:01 | 19.87670 | -97.42440 | 27330 ft | 432 kts | 62° |
| 2026-04-28 18:01 | 19.89015 | -97.39562 | 27286 ft | 431 kts | 61° |
| 2026-04-28 18:01 | 19.90346 | -97.36710 | 27258 ft | 432 kts | 62° |
| 2026-04-28 18:02 | 19.91674 | -97.33865 | 27237 ft | 433 kts | 62° |
| 2026-04-28 18:02 | 19.93024 | -97.30967 | 27200 ft | 433 kts | 62° |
| 2026-04-28 18:02 | 19.94339 | -97.28146 | 27167 ft | 433 kts | 62° |
| 2026-04-28 18:02 | 19.95676 | -97.25276 | 27115 ft | 432 kts | 62° |
| 2026-04-28 18:03 | 19.97013 | -97.22403 | 27072 ft | 432 kts | 62° |
| 2026-04-28 18:03 | 19.98360 | -97.19511 | 26641 ft | 440 kts | 62° |
| 2026-04-28 18:03 | 19.99703 | -97.16621 | 26187 ft | 436 kts | 62° |
| 2026-04-28 18:03 | 20.01028 | -97.13771 | 25733 ft | 428 kts | 62° |
| 2026-04-28 18:04 | 20.02326 | -97.10977 | 25280 ft | 423 kts | 62° |
| 2026-04-28 18:04 | 20.03622 | -97.08184 | 24836 ft | 421 kts | 63° |
| 2026-04-28 18:04 | 20.04928 | -97.05372 | 24387 ft | 421 kts | 63° |
| 2026-04-28 18:04 | 20.06218 | -97.02590 | 23943 ft | 421 kts | 63° |
| 2026-04-28 18:05 | 20.07513 | -96.99796 | 23489 ft | 419 kts | 63° |
| 2026-04-28 18:05 | 20.08351 | -96.97987 | 23205 ft | 417 kts | 63° |
| 2026-04-28 18:05 | 20.10054 | -96.94311 | 22617 ft | 412 kts | 63° |
| 2026-04-28 18:05 | 20.11316 | -96.91583 | 22186 ft | 411 kts | 63° |
| 2026-04-28 18:06 | 20.12566 | -96.88836 | 21757 ft | 410 kts | 66° |
| 2026-04-28 18:06 | 20.13466 | -96.85991 | 21335 ft | 407 kts | 76° |
| 2026-04-28 18:06 | 20.13852 | -96.83039 | 20919 ft | 403 kts | 86° |
| 2026-04-28 18:06 | 20.13718 | -96.80064 | 20406 ft | 404 kts | 97° |
| 2026-04-28 18:07 | 20.13073 | -96.77175 | 19802 ft | 405 kts | 108° |
| 2026-04-28 18:07 | 20.11923 | -96.74435 | 19190 ft | 405 kts | 118° |
| 2026-04-28 18:07 | 20.10317 | -96.71973 | 18569 ft | 406 kts | 128° |
| 2026-04-28 18:07 | 20.08324 | -96.69880 | 17956 ft | 406 kts | 139° |
| 2026-04-28 18:08 | 20.06010 | -96.68147 | 17378 ft | 404 kts | 146° |
| 2026-04-28 18:08 | 20.03620 | -96.66616 | 16899 ft | 399 kts | 148° |
| 2026-04-28 18:08 | 20.01211 | -96.65180 | 16501 ft | 392 kts | 149° |
| 2026-04-28 18:08 | 19.98859 | -96.63837 | 16257 ft | 380 kts | 150° |
| 2026-04-28 18:09 | 19.96543 | -96.62550 | 16194 ft | 364 kts | 150° |
| 2026-04-28 18:09 | 19.94357 | -96.61357 | 16003 ft | 341 kts | 150° |
| 2026-04-28 18:09 | 19.92308 | -96.60250 | 16042 ft | 322 kts | 150° |
| 2026-04-28 18:09 | 19.90307 | -96.59173 | 16007 ft | 329 kts | 150° |
| 2026-04-28 18:10 | 19.88380 | -96.57836 | 16016 ft | 330 kts | 137° |
| 2026-04-28 18:10 | 19.86584 | -96.56204 | 15592 ft | 341 kts | 136° |
| 2026-04-28 18:10 | 19.84788 | -96.54581 | 15049 ft | 343 kts | 137° |
| 2026-04-28 18:10 | 19.82973 | -96.52934 | 14481 ft | 345 kts | 137° |
| 2026-04-28 18:11 | 19.81151 | -96.51279 | 13893 ft | 347 kts | 136° |
| 2026-04-28 18:11 | 19.79314 | -96.49607 | 13311 ft | 348 kts | 136° |
| 2026-04-28 18:11 | 19.77477 | -96.47935 | 12732 ft | 350 kts | 136° |
| 2026-04-28 18:11 | 19.75616 | -96.46242 | 12126 ft | 350 kts | 136° |
| 2026-04-28 18:12 | 19.73783 | -96.44573 | 11524 ft | 351 kts | 137° |
| 2026-04-28 18:12 | 19.71938 | -96.42895 | 10915 ft | 351 kts | 137° |
| 2026-04-28 18:12 | 19.70083 | -96.41208 | 10340 ft | 350 kts | 137° |
| 2026-04-28 18:12 | 19.68227 | -96.39521 | 9766 ft | 349 kts | 137° |
| 2026-04-28 18:13 | 19.66423 | -96.37882 | 9219 ft | 335 kts | 137° |
| 2026-04-28 18:13 | 19.64699 | -96.36314 | 8704 ft | 314 kts | 137° |
| 2026-04-28 18:13 | 19.63098 | -96.34860 | 8238 ft | 296 kts | 137° |
| 2026-04-28 18:13 | 19.61563 | -96.33466 | 7915 ft | 285 kts | 138° |
| 2026-04-28 18:14 | 19.60061 | -96.32101 | 7587 ft | 282 kts | 138° |
| 2026-04-28 18:14 | 19.58581 | -96.30758 | 7259 ft | 280 kts | 138° |
| 2026-04-28 18:14 | 19.57113 | -96.29425 | 6925 ft | 277 kts | 138° |
| 2026-04-28 18:14 | 19.55669 | -96.28116 | 6546 ft | 266 kts | 139° |
| 2026-04-28 18:15 | 19.54306 | -96.26879 | 6342 ft | 247 kts | 139° |
| 2026-04-28 18:15 | 19.53038 | -96.25729 | 6208 ft | 231 kts | 139° |
| 2026-04-28 18:15 | 19.51831 | -96.24635 | 6079 ft | 227 kts | 139° |
| 2026-04-28 18:15 | 19.50641 | -96.23556 | 5966 ft | 227 kts | 138° |
| 2026-04-28 18:16 | 19.49426 | -96.22455 | 5839 ft | 229 kts | 138° |
| 2026-04-28 18:16 | 19.48205 | -96.21349 | 5715 ft | 229 kts | 139° |
| 2026-04-28 18:16 | 19.47004 | -96.20261 | 5560 ft | 228 kts | 139° |
| 2026-04-28 18:16 | 19.45791 | -96.19162 | 5366 ft | 228 kts | 138° |
| 2026-04-28 18:17 | 19.44595 | -96.18079 | 5138 ft | 226 kts | 138° |
| 2026-04-28 18:17 | 19.43405 | -96.17001 | 4871 ft | 226 kts | 138° |
| 2026-04-28 18:17 | 19.42211 | -96.15921 | 4601 ft | 226 kts | 138° |
| 2026-04-28 18:17 | 19.41020 | -96.14843 | 4404 ft | 222 kts | 138° |
| 2026-04-28 18:18 | 19.39697 | -96.13963 | 3944 ft | 232 kts | 162° |
| 2026-04-28 18:18 | 19.38077 | -96.13898 | 3625 ft | 232 kts | 187° |
| 2026-04-28 18:18 | 19.36544 | -96.14217 | 3409 ft | 217 kts | 187° |
| 2026-04-28 18:18 | 19.35585 | -96.14405 | 3234 ft | 202 kts | 186° |
| 2026-04-28 18:19 | 19.33838 | -96.14754 | 2908 ft | 180 kts | 187° |
| 2026-04-28 18:19 | 19.32645 | -96.14996 | 2670 ft | 170 kts | 186° |
| 2026-04-28 18:19 | 19.31496 | -96.15231 | 2484 ft | 167 kts | 187° |
| 2026-04-28 18:19 | 19.30335 | -96.15468 | 2348 ft | 169 kts | 187° |
| 2026-04-28 18:20 | 19.29173 | -96.15706 | 2254 ft | 174 kts | 187° |
| 2026-04-28 18:20 | 19.27965 | -96.15955 | 2157 ft | 172 kts | 188° |
| 2026-04-28 18:20 | 19.26836 | -96.16191 | 2072 ft | 157 kts | 188° |
| 2026-04-28 18:20 | 19.25791 | -96.16409 | 1903 ft | 146 kts | 188° |
| 2026-04-28 18:21 | 19.24814 | -96.16612 | 1822 ft | 143 kts | 188° |
| 2026-04-28 18:21 | 19.23805 | -96.16821 | 1732 ft | 148 kts | 188° |
| 2026-04-28 18:21 | 19.22797 | -96.17030 | 1597 ft | 147 kts | 188° |
| 2026-04-28 18:21 | 19.21788 | -96.17238 | 1418 ft | 146 kts | 188° |
| 2026-04-28 18:22 | 19.20794 | -96.17444 | 1221 ft | 145 kts | 189° |
| 2026-04-28 18:22 | 19.19806 | -96.17649 | 1046 ft | 143 kts | 189° |
| 2026-04-28 18:22 | 19.18832 | -96.17851 | 847 ft | 143 kts | 189° |
| 2026-04-28 18:22 | 19.17846 | -96.18054 | 643 ft | 142 kts | 190° |
| 2026-04-28 18:23 | 19.16886 | -96.18262 | 511 ft | 140 kts | 191° |
| 2026-04-28 18:23 | 19.15912 | -96.18466 | 322 ft | 144 kts | 190° |
| 2026-04-28 18:23 | 19.14930 | -96.18660 | 113 ft | 141 kts | 191° |
| 2026-04-28 18:23 | 19.14089 | -96.18834 | 98 ft | 89 kts | 192° |
| 2026-04-28 18:24 | 19.13661 | -96.18927 | 104 ft | 52 kts | 191° |
| 2026-04-28 18:24 | 19.13476 | -96.18966 | 108 ft | 38 kts | 191° |
| 2026-04-28 18:24 | 19.13344 | -96.19006 | 109 ft | 2 kts | 207° |
| 2026-04-28 18:24 | 19.13333 | -96.19004 | 109 ft | 1 kts | 145° |
| 2026-04-28 18:25 | 19.13331 | -96.18994 | 109 ft | 1 kts | 79° |
| 2026-04-28 18:25 | 19.13343 | -96.18986 | 108 ft | 4 kts | 7° |
| 2026-04-28 18:25 | 19.13390 | -96.18980 | 108 ft | 7 kts | 7° |
| 2026-04-28 18:26 | 19.13571 | -96.18941 | 106 ft | 18 kts | 13° |
| 2026-04-28 18:26 | 19.13703 | -96.18913 | 103 ft | 19 kts | 10° |
| 2026-04-28 18:26 | 19.13841 | -96.18889 | 100 ft | 22 kts | 8° |
| 2026-04-28 18:26 | 19.13987 | -96.18824 | 99 ft | 23 kts | 42° |
| 2026-04-28 18:27 | 19.14107 | -96.18709 | 96 ft | 23 kts | 43° |
| 2026-04-28 18:27 | 19.14190 | -96.18627 | 95 ft | 14 kts | 45° |
| 2026-04-28 18:27 | 19.14201 | -96.18560 | 94 ft | 8 kts | 103° |
| 2026-04-28 18:27 | 19.14220 | -96.18515 | 93 ft | 6 kts | 23° |
| 2026-04-28 18:28 | 19.14265 | -96.18504 | 93 ft | 6 kts | 8° |
| 2026-04-28 18:28 | 19.14279 | -96.18487 | 93 ft | 3 kts | 89° |
| 2026-04-28 18:28 | 19.14272 | -96.18449 | 92 ft | 4 kts | 102° |
| 2026-04-28 18:28 | 19.14267 | -96.18426 | 92 ft | 2 kts | 103° |
| 2026-04-28 18:29 | 19.14266 | -96.18422 | 91 ft | 0 kts | 103° |